SAS2268 LPMA-EKCH
Flight info
| Callsign | SAS2268 |
|---|---|
| Flight time | N/A |
| Altitude | 34000 |
| Route | DEGUN DCT ROLAR DCT MARUM DCT ASMAR/N0447F360 DCT DEMOS DCT LOTEE DCT AZFIC DCT ERIGA UN741 NTS DCT PIWIZ DCT TSU UN858 OQQAL DCT RANUX/N0433F370 DCT VALEK DCT LUTAX DCT DIK/N0429F360 DCT ARCKY/N0432F370 DCT IBESA DCT GESTO DCT MAKEL N851 GESKA Z711 MONAK |
| Aircraft | A320/M-SDE3FGHIRWY/LB1 |
Departure
| Time | 2026-05-04 14:44 |
|---|---|
| Airport | Cristiano Ronaldo International Airport (LPMA) |
Arrival
| Time | N/A |
|---|---|
| Airport | Copenhagen Kastrup Airport (EKCH) |
| Time | Latitude | Longitude | Altitude | Speed | Heading |
|---|---|---|---|---|---|
| 2026-05-04 14:05 | 32.69411 | -16.77592 | 177 ft | 0 kts | 138° |
| 2026-05-04 14:06 | 32.69437 | -16.77556 | 176 ft | 0 kts | 138° |
| 2026-05-04 14:34 | 32.69448 | -16.77567 | 176 ft | 2 kts | 138° |
| 2026-05-04 14:35 | 32.69460 | -16.77580 | 176 ft | 2 kts | 137° |
| 2026-05-04 14:35 | 32.69472 | -16.77593 | 176 ft | 2 kts | 134° |
| 2026-05-04 14:35 | 32.69483 | -16.77608 | 176 ft | 2 kts | 107° |
| 2026-05-04 14:35 | 32.69482 | -16.77622 | 176 ft | 1 kts | 43° |
| 2026-05-04 14:36 | 32.69481 | -16.77623 | 176 ft | 0 kts | 45° |
| 2026-05-04 14:40 | 32.69512 | -16.77584 | 176 ft | 15 kts | 47° |
| 2026-05-04 14:40 | 32.69609 | -16.77461 | 176 ft | 24 kts | 46° |
| 2026-05-04 14:41 | 32.69729 | -16.77310 | 176 ft | 26 kts | 46° |
| 2026-05-04 14:41 | 32.69860 | -16.77183 | 176 ft | 23 kts | 9° |
| 2026-05-04 14:41 | 32.70122 | -16.77057 | 176 ft | 22 kts | 44° |
| 2026-05-04 14:42 | 32.70387 | -16.76751 | 176 ft | 29 kts | 44° |
| 2026-05-04 14:42 | 32.70528 | -16.76586 | 176 ft | 26 kts | 45° |
| 2026-05-04 14:42 | 32.70644 | -16.76490 | 176 ft | 19 kts | 19° |
| 2026-05-04 14:43 | 32.70651 | -16.76447 | 176 ft | 6 kts | 196° |
| 2026-05-04 14:43 | 32.70627 | -16.76466 | 176 ft | 0 kts | 226° |
| 2026-05-04 14:43 | 32.70626 | -16.76468 | 176 ft | 0 kts | 226° |
| 2026-05-04 14:43 | 32.70622 | -16.76473 | 176 ft | 3 kts | 224° |
| 2026-05-04 14:44 | 32.70481 | -16.76636 | 176 ft | 64 kts | 224° |
| 2026-05-04 14:44 | 32.70014 | -16.77184 | 176 ft | 122 kts | 224° |
| 2026-05-04 14:44 | 32.69278 | -16.78043 | 219 ft | 164 kts | 224° |
| 2026-05-04 14:44 | 32.68501 | -16.78956 | 896 ft | 157 kts | 216° |
| 2026-05-04 14:45 | 32.67517 | -16.79535 | 1370 ft | 161 kts | 193° |
| 2026-05-04 14:45 | 32.66363 | -16.79866 | 1509 ft | 181 kts | 202° |
| 2026-05-04 14:45 | 32.65108 | -16.80415 | 1695 ft | 204 kts | 193° |
| 2026-05-04 14:45 | 32.63630 | -16.80328 | 1861 ft | 229 kts | 159° |
| 2026-05-04 14:46 | 32.62294 | -16.79171 | 2166 ft | 253 kts | 128° |
| 2026-05-04 14:46 | 32.61524 | -16.77254 | 2794 ft | 263 kts | 109° |
| 2026-05-04 14:46 | 32.61005 | -16.75168 | 3582 ft | 266 kts | 107° |
| 2026-05-04 14:46 | 32.60510 | -16.73039 | 4368 ft | 269 kts | 106° |
| 2026-05-04 14:47 | 32.60033 | -16.70878 | 5144 ft | 273 kts | 101° |
| 2026-05-04 14:47 | 32.60057 | -16.68618 | 5873 ft | 279 kts | 77° |
| 2026-05-04 14:47 | 32.60898 | -16.66542 | 6552 ft | 285 kts | 50° |
| 2026-05-04 14:47 | 32.62257 | -16.64815 | 7236 ft | 287 kts | 45° |
| 2026-05-04 14:48 | 32.63658 | -16.63109 | 7945 ft | 290 kts | 45° |
| 2026-05-04 14:48 | 32.65078 | -16.61386 | 8635 ft | 293 kts | 45° |
| 2026-05-04 14:48 | 32.66562 | -16.59710 | 9304 ft | 296 kts | 34° |
| 2026-05-04 14:48 | 32.68326 | -16.58436 | 9967 ft | 298 kts | 28° |
| 2026-05-04 14:49 | 32.70158 | -16.57189 | 10344 ft | 313 kts | 27° |
| 2026-05-04 14:49 | 32.72114 | -16.55870 | 10473 ft | 334 kts | 27° |
| 2026-05-04 14:49 | 32.74188 | -16.54469 | 10739 ft | 349 kts | 28° |
| 2026-05-04 14:49 | 32.76310 | -16.53029 | 11258 ft | 354 kts | 28° |
| 2026-05-04 14:50 | 32.78460 | -16.51565 | 11834 ft | 358 kts | 28° |
| 2026-05-04 14:50 | 32.80628 | -16.50086 | 12411 ft | 361 kts | 28° |
| 2026-05-04 14:50 | 32.82819 | -16.48592 | 12985 ft | 365 kts | 27° |
| 2026-05-04 14:50 | 32.85034 | -16.47083 | 13554 ft | 368 kts | 27° |
| 2026-05-04 14:51 | 32.87265 | -16.45564 | 14141 ft | 370 kts | 28° |
| 2026-05-04 14:51 | 32.89506 | -16.44036 | 14666 ft | 373 kts | 28° |
| 2026-05-04 14:51 | 32.91769 | -16.42492 | 15201 ft | 376 kts | 28° |
| 2026-05-04 14:51 | 32.94048 | -16.40933 | 15721 ft | 380 kts | 28° |
| 2026-05-04 14:52 | 32.96346 | -16.39363 | 16232 ft | 382 kts | 28° |
| 2026-05-04 14:52 | 32.98662 | -16.37779 | 16713 ft | 386 kts | 28° |
| 2026-05-04 14:52 | 33.00999 | -16.36182 | 17210 ft | 389 kts | 28° |
| 2026-05-04 14:52 | 33.03351 | -16.34576 | 17706 ft | 392 kts | 28° |
| 2026-05-04 14:53 | 33.05728 | -16.32948 | 18241 ft | 394 kts | 28° |
| 2026-05-04 14:53 | 33.08112 | -16.31312 | 18708 ft | 398 kts | 28° |
| 2026-05-04 14:53 | 33.10518 | -16.29662 | 19151 ft | 401 kts | 27° |
| 2026-05-04 14:53 | 33.12949 | -16.27995 | 19594 ft | 404 kts | 27° |
| 2026-05-04 14:54 | 33.15401 | -16.26312 | 20047 ft | 408 kts | 27° |
| 2026-05-04 14:54 | 33.17868 | -16.24614 | 20490 ft | 411 kts | 27° |
| 2026-05-04 14:54 | 33.20360 | -16.22896 | 20918 ft | 415 kts | 27° |
| 2026-05-04 14:54 | 33.22872 | -16.21166 | 21338 ft | 419 kts | 27° |
| 2026-05-04 14:55 | 33.25408 | -16.19422 | 21753 ft | 422 kts | 27° |
| 2026-05-04 14:55 | 33.27962 | -16.17666 | 22155 ft | 426 kts | 27° |
| 2026-05-04 14:55 | 33.30539 | -16.15893 | 22544 ft | 429 kts | 27° |
| 2026-05-04 14:55 | 33.33135 | -16.14106 | 22930 ft | 433 kts | 27° |
| 2026-05-04 14:56 | 33.35750 | -16.12303 | 23318 ft | 436 kts | 27° |
| 2026-05-04 14:56 | 33.38385 | -16.10481 | 23676 ft | 439 kts | 27° |
| 2026-05-04 14:56 | 33.41044 | -16.08640 | 23998 ft | 442 kts | 27° |
| 2026-05-04 14:56 | 33.43700 | -16.06800 | 24358 ft | 443 kts | 27° |
| 2026-05-04 14:57 | 33.46380 | -16.04940 | 24717 ft | 445 kts | 27° |
| 2026-05-04 14:57 | 33.49068 | -16.03075 | 25071 ft | 447 kts | 27° |
| 2026-05-04 14:57 | 33.51765 | -16.01205 | 25412 ft | 449 kts | 27° |
| 2026-05-04 14:57 | 33.54477 | -15.99325 | 25735 ft | 451 kts | 27° |
| 2026-05-04 14:58 | 33.57198 | -15.97435 | 26052 ft | 453 kts | 27° |
| 2026-05-04 14:58 | 33.59924 | -15.95538 | 26355 ft | 454 kts | 27° |
| 2026-05-04 14:58 | 33.62665 | -15.93628 | 26646 ft | 457 kts | 27° |
| 2026-05-04 14:58 | 33.65421 | -15.91709 | 26957 ft | 459 kts | 27° |
| 2026-05-04 14:59 | 33.68187 | -15.89785 | 27250 ft | 461 kts | 27° |
| 2026-05-04 14:59 | 33.71004 | -15.87827 | 27557 ft | 463 kts | 27° |
| 2026-05-04 14:59 | 33.76610 | -15.83921 | 28101 ft | 468 kts | 27° |
| 2026-05-04 15:00 | 33.79429 | -15.81948 | 28401 ft | 469 kts | 27° |
| 2026-05-04 15:00 | 33.82246 | -15.79971 | 28800 ft | 469 kts | 27° |
| 2026-05-04 15:00 | 33.85062 | -15.77994 | 29188 ft | 468 kts | 26° |
| 2026-05-04 15:01 | 33.90694 | -15.74053 | 29980 ft | 468 kts | 26° |
| 2026-05-04 15:01 | 33.93505 | -15.72083 | 30360 ft | 467 kts | 26° |
| 2026-05-04 15:01 | 33.96314 | -15.70109 | 30701 ft | 467 kts | 26° |
| 2026-05-04 15:01 | 33.99116 | -15.68137 | 31064 ft | 466 kts | 26° |
| 2026-05-04 15:02 | 34.01911 | -15.66173 | 31400 ft | 465 kts | 26° |
| 2026-05-04 15:02 | 34.04711 | -15.64208 | 31737 ft | 465 kts | 26° |
| 2026-05-04 15:02 | 34.07505 | -15.62247 | 32067 ft | 465 kts | 26° |
| 2026-05-04 15:02 | 34.10297 | -15.60284 | 32393 ft | 465 kts | 26° |
| 2026-05-04 15:03 | 34.13088 | -15.58315 | 32720 ft | 464 kts | 26° |
| 2026-05-04 15:03 | 34.15877 | -15.56345 | 33047 ft | 464 kts | 26° |
| 2026-05-04 15:03 | 34.18661 | -15.54375 | 33364 ft | 464 kts | 26° |
| 2026-05-04 15:03 | 34.21447 | -15.52405 | 33682 ft | 464 kts | 26° |
| 2026-05-04 15:04 | 34.24231 | -15.50438 | 33984 ft | 464 kts | 26° |
| 2026-05-04 15:04 | 34.27020 | -15.48462 | 34150 ft | 467 kts | 26° |
| 2026-05-04 15:04 | 34.32680 | -15.44456 | 34155 ft | 475 kts | 26° |
| 2026-05-04 15:05 | 34.38391 | -15.40406 | 34158 ft | 476 kts | 26° |
| 2026-05-04 15:05 | 34.44098 | -15.36350 | 34159 ft | 476 kts | 26° |
| 2026-05-04 15:06 | 34.49811 | -15.32280 | 34160 ft | 476 kts | 26° |
| 2026-05-04 15:07 | 34.58382 | -15.26166 | 34165 ft | 477 kts | 25° |
| 2026-05-04 15:07 | 34.63136 | -15.22774 | 34163 ft | 477 kts | 25° |
| 2026-05-04 15:08 | 34.68857 | -15.18674 | 34165 ft | 475 kts | 25° |
| 2026-05-04 15:08 | 34.71635 | -15.16669 | 34251 ft | 452 kts | 25° |
| 2026-05-04 15:08 | 34.74216 | -15.14788 | 34179 ft | 409 kts | 25° |
| 2026-05-04 15:08 | 34.76528 | -15.13092 | 34141 ft | 367 kts | 24° |
| 2026-05-04 15:09 | 34.78634 | -15.11560 | 34153 ft | 343 kts | 23° |
| 2026-05-04 15:09 | 34.80647 | -15.10122 | 34186 ft | 328 kts | 21° |
| 2026-05-04 15:09 | 34.82580 | -15.08745 | 34166 ft | 316 kts | 21° |
| 2026-05-04 15:10 | 34.86251 | -15.06128 | 34159 ft | 296 kts | 21° |
| 2026-05-04 15:10 | 34.87997 | -15.04876 | 34159 ft | 287 kts | 20° |
| 2026-05-04 15:10 | 34.91362 | -15.02462 | 34137 ft | 273 kts | 20° |
| 2026-05-04 15:11 | 34.92994 | -15.01299 | 33940 ft | 278 kts | 20° |
| 2026-05-04 15:11 | 34.94669 | -15.00101 | 33831 ft | 279 kts | 20° |
| 2026-05-04 15:11 | 34.96327 | -14.98898 | 33873 ft | 275 kts | 20° |
| 2026-05-04 15:11 | 34.97982 | -14.97693 | 33810 ft | 275 kts | 20° |
| 2026-05-04 15:12 | 34.99585 | -14.96520 | 33954 ft | 259 kts | 20° |
| 2026-05-04 15:12 | 35.01090 | -14.95409 | 33984 ft | 250 kts | 19° |
| 2026-05-04 15:12 | 35.01563 | -14.95063 | 33902 ft | 251 kts | 19° |
| 2026-05-04 15:13 | 35.01987 | -14.94759 | 33852 ft | 251 kts | 19° |
| 2026-05-04 15:13 | 35.03454 | -14.93698 | 34133 ft | 236 kts | 18° |
| 2026-05-04 15:13 | 35.04840 | -14.92699 | 34152 ft | 232 kts | 17° |
| 2026-05-04 15:13 | 35.06222 | -14.91710 | 34153 ft | 229 kts | 17° |